sensor_id;sensor_type;location;lat;lon;timestamp;P1;durP1;ratioP1;P2;durP2;ratioP2
56824;SDS011;42705;50.326;18.772;2023-05-28T00:03:16;24.60;;;10.90;;
56824;SDS011;42705;50.326;18.772;2023-05-28T00:08:42;25.50;;;13.20;;
56824;SDS011;42705;50.326;18.772;2023-05-28T00:14:03;16.10;;;7.90;;
56824;SDS011;42705;50.326;18.772;2023-05-28T00:19:25;18.60;;;7.20;;
56824;SDS011;42705;50.326;18.772;2023-05-28T00:24:47;19.00;;;8.70;;
56824;SDS011;42705;50.326;18.772;2023-05-28T00:30:09;22.60;;;9.80;;
56824;SDS011;42705;50.326;18.772;2023-05-28T00:35:32;22.20;;;10.60;;
56824;SDS011;42705;50.326;18.772;2023-05-28T00:40:53;19.00;;;9.00;;
56824;SDS011;42705;50.326;18.772;2023-05-28T00:46:18;16.00;;;6.40;;
56824;SDS011;42705;50.326;18.772;2023-05-28T00:51:43;15.20;;;6.00;;
56824;SDS011;42705;50.326;18.772;2023-05-28T00:57:06;14.20;;;6.00;;
56824;SDS011;42705;50.326;18.772;2023-05-28T01:02:28;14.00;;;7.90;;
56824;SDS011;42705;50.326;18.772;2023-05-28T01:07:50;12.20;;;4.70;;
56824;SDS011;42705;50.326;18.772;2023-05-28T01:13:12;9.90;;;4.70;;
56824;SDS011;42705;50.326;18.772;2023-05-28T01:18:35;19.00;;;6.50;;
56824;SDS011;42705;50.326;18.772;2023-05-28T01:24:01;32.90;;;11.10;;
56824;SDS011;42705;50.326;18.772;2023-05-28T01:29:24;23.30;;;8.70;;
56824;SDS011;42705;50.326;18.772;2023-05-28T01:34:46;21.00;;;10.50;;
56824;SDS011;42705;50.326;18.772;2023-05-28T01:40:09;23.30;;;9.40;;
56824;SDS011;42705;50.326;18.772;2023-05-28T01:45:33;20.30;;;8.00;;
56824;SDS011;42705;50.326;18.772;2023-05-28T01:50:56;16.60;;;7.50;;
56824;SDS011;42705;50.326;18.772;2023-05-28T01:56:18;28.90;;;9.70;;
56824;SDS011;42705;50.326;18.772;2023-05-28T02:01:41;19.40;;;8.00;;
56824;SDS011;42705;50.326;18.772;2023-05-28T02:07:03;17.90;;;6.90;;
56824;SDS011;42705;50.326;18.772;2023-05-28T02:17:48;21.50;;;8.90;;
56824;SDS011;42705;50.326;18.772;2023-05-28T02:28:34;15.40;;;6.20;;
56824;SDS011;42705;50.326;18.772;2023-05-28T02:33:56;17.50;;;6.60;;
56824;SDS011;42705;50.326;18.772;2023-05-28T02:39:18;19.00;;;7.40;;
56824;SDS011;42705;50.326;18.772;2023-05-28T02:44:40;17.30;;;7.00;;
56824;SDS011;42705;50.326;18.772;2023-05-28T02:50:03;17.20;;;7.40;;
56824;SDS011;42705;50.326;18.772;2023-05-28T02:55:35;17.10;;;5.80;;
56824;SDS011;42705;50.326;18.772;2023-05-28T03:00:58;20.10;;;7.40;;
56824;SDS011;42705;50.326;18.772;2023-05-28T03:06:21;16.60;;;6.20;;
56824;SDS011;42705;50.326;18.772;2023-05-28T03:11:48;13.30;;;6.10;;
56824;SDS011;42705;50.326;18.772;2023-05-28T03:17:10;24.10;;;8.50;;
56824;SDS011;42705;50.326;18.772;2023-05-28T03:28:23;15.20;;;6.70;;
56824;SDS011;42705;50.326;18.772;2023-05-28T03:34:05;19.80;;;7.50;;
56824;SDS011;42705;50.326;18.772;2023-05-28T03:39:27;17.20;;;6.90;;
56824;SDS011;42705;50.326;18.772;2023-05-28T03:44:50;23.20;;;8.40;;
56824;SDS011;42705;50.326;18.772;2023-05-28T03:50:12;22.00;;;8.20;;
56824;SDS011;42705;50.326;18.772;2023-05-28T04:01:02;13.10;;;5.10;;
56824;SDS011;42705;50.326;18.772;2023-05-28T04:06:24;11.00;;;4.30;;
56824;SDS011;42705;50.326;18.772;2023-05-28T04:11:47;10.20;;;4.50;;
56824;SDS011;42705;50.326;18.772;2023-05-28T04:17:09;11.20;;;4.50;;
56824;SDS011;42705;50.326;18.772;2023-05-28T04:22:33;13.20;;;4.70;;
56824;SDS011;42705;50.326;18.772;2023-05-28T04:27:55;13.00;;;4.40;;
56824;SDS011;42705;50.326;18.772;2023-05-28T04:33:18;8.30;;;4.20;;
56824;SDS011;42705;50.326;18.772;2023-05-28T04:38:43;9.10;;;4.00;;
56824;SDS011;42705;50.326;18.772;2023-05-28T04:44:05;16.60;;;4.70;;
56824;SDS011;42705;50.326;18.772;2023-05-28T04:49:27;14.50;;;4.60;;
56824;SDS011;42705;50.326;18.772;2023-05-28T04:54:51;6.80;;;3.40;;
56824;SDS011;42705;50.326;18.772;2023-05-28T05:00:14;8.10;;;2.70;;
56824;SDS011;42705;50.326;18.772;2023-05-28T05:05:36;5.10;;;2.20;;
56824;SDS011;42705;50.326;18.772;2023-05-28T05:11:00;5.20;;;2.20;;
56824;SDS011;42705;50.326;18.772;2023-05-28T05:16:22;5.60;;;2.00;;
56824;SDS011;42705;50.326;18.772;2023-05-28T05:27:06;6.00;;;2.20;;
56824;SDS011;42705;50.326;18.772;2023-05-28T05:32:28;8.50;;;3.90;;
56824;SDS011;42705;50.326;18.772;2023-05-28T05:37:50;6.50;;;2.00;;
56824;SDS011;42705;50.326;18.772;2023-05-28T05:43:15;6.00;;;2.70;;
56824;SDS011;42705;50.326;18.772;2023-05-28T05:48:37;5.40;;;2.20;;
56824;SDS011;42705;50.326;18.772;2023-05-28T05:53:59;5.10;;;2.90;;
56824;SDS011;42705;50.326;18.772;2023-05-28T05:59:22;3.20;;;2.20;;
56824;SDS011;42705;50.326;18.772;2023-05-28T06:04:44;3.40;;;1.90;;
56824;SDS011;42705;50.326;18.772;2023-05-28T06:10:18;7.70;;;2.10;;
56824;SDS011;42705;50.326;18.772;2023-05-28T06:15:40;3.90;;;2.20;;
56824;SDS011;42705;50.326;18.772;2023-05-28T06:21:03;4.80;;;2.20;;
56824;SDS011;42705;50.326;18.772;2023-05-28T06:26:26;4.40;;;2.10;;
56824;SDS011;42705;50.326;18.772;2023-05-28T06:31:49;6.00;;;1.90;;
56824;SDS011;42705;50.326;18.772;2023-05-28T06:37:12;3.70;;;1.60;;
56824;SDS011;42705;50.326;18.772;2023-05-28T06:48:05;2.50;;;1.60;;
56824;SDS011;42705;50.326;18.772;2023-05-28T06:53:28;2.30;;;1.20;;
56824;SDS011;42705;50.326;18.772;2023-05-28T06:58:49;5.90;;;1.00;;
56824;SDS011;42705;50.326;18.772;2023-05-28T07:04:32;3.30;;;1.20;;
56824;SDS011;42705;50.326;18.772;2023-05-28T07:10:00;2.50;;;1.00;;
56824;SDS011;42705;50.326;18.772;2023-05-28T07:15:23;3.80;;;1.30;;
56824;SDS011;42705;50.326;18.772;2023-05-28T07:20:46;3.70;;;1.50;;
56824;SDS011;42705;50.326;18.772;2023-05-28T07:26:15;4.40;;;1.90;;
56824;SDS011;42705;50.326;18.772;2023-05-28T07:31:38;5.10;;;1.40;;
56824;SDS011;42705;50.326;18.772;2023-05-28T07:37:00;3.10;;;1.40;;
56824;SDS011;42705;50.326;18.772;2023-05-28T07:42:22;4.90;;;1.30;;
56824;SDS011;42705;50.326;18.772;2023-05-28T07:47:54;3.50;;;1.50;;
56824;SDS011;42705;50.326;18.772;2023-05-28T07:53:43;6.00;;;1.20;;
56824;SDS011;42705;50.326;18.772;2023-05-28T07:59:09;5.00;;;1.40;;
56824;SDS011;42705;50.326;18.772;2023-05-28T08:04:33;2.70;;;1.30;;
56824;SDS011;42705;50.326;18.772;2023-05-28T08:09:55;1.70;;;0.90;;
56824;SDS011;42705;50.326;18.772;2023-05-28T08:15:17;3.10;;;1.30;;
56824;SDS011;42705;50.326;18.772;2023-05-28T08:20:40;5.00;;;1.60;;
56824;SDS011;42705;50.326;18.772;2023-05-28T08:26:10;3.60;;;1.40;;
56824;SDS011;42705;50.326;18.772;2023-05-28T08:31:32;4.20;;;1.90;;
56824;SDS011;42705;50.326;18.772;2023-05-28T08:37:08;3.40;;;1.30;;
56824;SDS011;42705;50.326;18.772;2023-05-28T08:42:54;2.90;;;1.00;;
56824;SDS011;42705;50.326;18.772;2023-05-28T08:48:17;6.00;;;1.40;;
56824;SDS011;42705;50.326;18.772;2023-05-28T08:53:42;3.20;;;1.40;;
56824;SDS011;42705;50.326;18.772;2023-05-28T08:59:08;5.00;;;2.10;;
56824;SDS011;42705;50.326;18.772;2023-05-28T09:04:32;6.80;;;1.50;;
56824;SDS011;42705;50.326;18.772;2023-05-28T09:09:54;6.00;;;1.60;;
56824;SDS011;42705;50.326;18.772;2023-05-28T09:15:21;2.70;;;1.50;;
56824;SDS011;42705;50.326;18.772;2023-05-28T09:20:44;4.70;;;1.70;;
56824;SDS011;42705;50.326;18.772;2023-05-28T09:26:08;4.40;;;1.50;;
56824;SDS011;42705;50.326;18.772;2023-05-28T09:37:17;3.20;;;1.40;;
56824;SDS011;42705;50.326;18.772;2023-05-28T09:42:39;3.00;;;1.30;;
56824;SDS011;42705;50.326;18.772;2023-05-28T09:48:05;4.10;;;1.30;;
56824;SDS011;42705;50.326;18.772;2023-05-28T09:53:27;4.50;;;1.60;;
56824;SDS011;42705;50.326;18.772;2023-05-28T09:58:50;2.60;;;1.40;;
56824;SDS011;42705;50.326;18.772;2023-05-28T10:04:17;3.80;;;1.30;;
56824;SDS011;42705;50.326;18.772;2023-05-28T10:09:41;4.80;;;2.40;;
56824;SDS011;42705;50.326;18.772;2023-05-28T10:15:06;6.60;;;2.20;;
56824;SDS011;42705;50.326;18.772;2023-05-28T10:20:29;2.70;;;1.40;;
56824;SDS011;42705;50.326;18.772;2023-05-28T10:25:52;4.60;;;1.90;;
56824;SDS011;42705;50.326;18.772;2023-05-28T10:31:15;3.20;;;1.40;;
56824;SDS011;42705;50.326;18.772;2023-05-28T10:36:49;2.60;;;1.30;;
56824;SDS011;42705;50.326;18.772;2023-05-28T10:42:17;3.30;;;1.70;;
56824;SDS011;42705;50.326;18.772;2023-05-28T10:47:43;4.60;;;1.40;;
56824;SDS011;42705;50.326;18.772;2023-05-28T10:53:13;6.40;;;1.60;;
56824;SDS011;42705;50.326;18.772;2023-05-28T10:58:40;5.40;;;1.50;;
56824;SDS011;42705;50.326;18.772;2023-05-28T11:04:04;4.40;;;1.50;;
56824;SDS011;42705;50.326;18.772;2023-05-28T11:09:26;4.60;;;1.60;;
56824;SDS011;42705;50.326;18.772;2023-05-28T11:14:48;4.70;;;2.20;;
56824;SDS011;42705;50.326;18.772;2023-05-28T11:25:46;2.70;;;1.20;;
56824;SDS011;42705;50.326;18.772;2023-05-28T11:31:08;6.40;;;1.40;;
56824;SDS011;42705;50.326;18.772;2023-05-28T11:41:53;6.90;;;1.60;;
56824;SDS011;42705;50.326;18.772;2023-05-28T11:47:15;3.40;;;1.60;;
56824;SDS011;42705;50.326;18.772;2023-05-28T11:52:37;6.60;;;1.90;;
56824;SDS011;42705;50.326;18.772;2023-05-28T11:57:59;6.10;;;1.60;;
56824;SDS011;42705;50.326;18.772;2023-05-28T12:03:24;3.40;;;1.20;;
56824;SDS011;42705;50.326;18.772;2023-05-28T12:08:47;3.90;;;1.70;;
56824;SDS011;42705;50.326;18.772;2023-05-28T12:14:12;4.20;;;1.50;;
56824;SDS011;42705;50.326;18.772;2023-05-28T12:19:36;4.30;;;1.60;;
56824;SDS011;42705;50.326;18.772;2023-05-28T12:25:00;3.90;;;1.70;;
56824;SDS011;42705;50.326;18.772;2023-05-28T12:30:22;3.00;;;1.50;;
56824;SDS011;42705;50.326;18.772;2023-05-28T12:35:45;2.80;;;1.10;;
56824;SDS011;42705;50.326;18.772;2023-05-28T12:41:07;4.00;;;1.40;;
56824;SDS011;42705;50.326;18.772;2023-05-28T12:51:52;3.10;;;1.60;;
56824;SDS011;42705;50.326;18.772;2023-05-28T12:57:13;3.20;;;1.90;;
56824;SDS011;42705;50.326;18.772;2023-05-28T13:02:38;5.40;;;1.90;;
56824;SDS011;42705;50.326;18.772;2023-05-28T13:08:01;5.00;;;1.70;;
56824;SDS011;42705;50.326;18.772;2023-05-28T13:13:23;4.60;;;2.00;;
56824;SDS011;42705;50.326;18.772;2023-05-28T13:18:45;4.90;;;1.70;;
56824;SDS011;42705;50.326;18.772;2023-05-28T13:24:08;4.50;;;2.00;;
56824;SDS011;42705;50.326;18.772;2023-05-28T13:29:30;4.70;;;2.00;;
56824;SDS011;42705;50.326;18.772;2023-05-28T13:34:52;4.00;;;1.70;;
56824;SDS011;42705;50.326;18.772;2023-05-28T13:40:15;3.20;;;1.80;;
56824;SDS011;42705;50.326;18.772;2023-05-28T13:45:37;4.00;;;1.60;;
56824;SDS011;42705;50.326;18.772;2023-05-28T13:51:02;5.20;;;1.90;;
56824;SDS011;42705;50.326;18.772;2023-05-28T13:56:24;4.50;;;2.10;;
56824;SDS011;42705;50.326;18.772;2023-05-28T14:01:47;7.60;;;1.90;;
56824;SDS011;42705;50.326;18.772;2023-05-28T14:07:09;4.60;;;1.70;;
56824;SDS011;42705;50.326;18.772;2023-05-28T14:12:31;1.90;;;1.60;;
56824;SDS011;42705;50.326;18.772;2023-05-28T14:17:53;4.20;;;1.50;;
56824;SDS011;42705;50.326;18.772;2023-05-28T14:23:15;4.40;;;1.70;;
56824;SDS011;42705;50.326;18.772;2023-05-28T14:28:37;2.80;;;1.80;;
56824;SDS011;42705;50.326;18.772;2023-05-28T14:34:00;3.40;;;1.50;;
56824;SDS011;42705;50.326;18.772;2023-05-28T14:39:22;3.20;;;1.50;;
56824;SDS011;42705;50.326;18.772;2023-05-28T14:44:44;4.60;;;1.50;;
56824;SDS011;42705;50.326;18.772;2023-05-28T14:50:07;3.30;;;1.60;;
56824;SDS011;42705;50.326;18.772;2023-05-28T14:55:29;6.70;;;1.80;;
56824;SDS011;42705;50.326;18.772;2023-05-28T15:00:51;4.00;;;1.50;;
56824;SDS011;42705;50.326;18.772;2023-05-28T15:06:13;6.20;;;1.80;;
56824;SDS011;42705;50.326;18.772;2023-05-28T15:11:34;3.80;;;1.50;;
56824;SDS011;42705;50.326;18.772;2023-05-28T15:16:56;4.90;;;1.50;;
56824;SDS011;42705;50.326;18.772;2023-05-28T15:22:19;8.50;;;1.90;;
56824;SDS011;42705;50.326;18.772;2023-05-28T15:27:41;7.10;;;1.80;;
56824;SDS011;42705;50.326;18.772;2023-05-28T15:33:04;3.50;;;1.80;;
56824;SDS011;42705;50.326;18.772;2023-05-28T15:38:26;3.50;;;1.20;;
56824;SDS011;42705;50.326;18.772;2023-05-28T15:43:49;5.10;;;2.00;;
56824;SDS011;42705;50.326;18.772;2023-05-28T15:49:11;3.40;;;1.40;;
56824;SDS011;42705;50.326;18.772;2023-05-28T15:54:33;5.40;;;2.00;;
56824;SDS011;42705;50.326;18.772;2023-05-28T15:59:55;3.60;;;1.40;;
56824;SDS011;42705;50.326;18.772;2023-05-28T16:05:17;4.30;;;1.50;;
56824;SDS011;42705;50.326;18.772;2023-05-28T16:10:40;3.20;;;1.50;;
56824;SDS011;42705;50.326;18.772;2023-05-28T16:16:02;5.20;;;1.50;;
56824;SDS011;42705;50.326;18.772;2023-05-28T16:21:26;6.00;;;1.70;;
56824;SDS011;42705;50.326;18.772;2023-05-28T16:26:49;4.40;;;1.20;;
56824;SDS011;42705;50.326;18.772;2023-05-28T16:32:13;2.70;;;1.60;;
56824;SDS011;42705;50.326;18.772;2023-05-28T16:37:37;6.70;;;1.60;;
56824;SDS011;42705;50.326;18.772;2023-05-28T16:43:00;5.70;;;1.80;;
56824;SDS011;42705;50.326;18.772;2023-05-28T16:48:22;3.40;;;1.90;;
56824;SDS011;42705;50.326;18.772;2023-05-28T16:53:45;2.80;;;1.60;;
56824;SDS011;42705;50.326;18.772;2023-05-28T16:59:07;3.80;;;1.40;;
56824;SDS011;42705;50.326;18.772;2023-05-28T17:04:29;3.70;;;1.50;;
56824;SDS011;42705;50.326;18.772;2023-05-28T17:09:52;3.00;;;1.40;;
56824;SDS011;42705;50.326;18.772;2023-05-28T17:15:15;6.20;;;1.90;;
56824;SDS011;42705;50.326;18.772;2023-05-28T17:20:38;2.60;;;1.50;;
56824;SDS011;42705;50.326;18.772;2023-05-28T17:26:00;4.90;;;1.40;;
56824;SDS011;42705;50.326;18.772;2023-05-28T17:31:23;5.20;;;1.70;;
56824;SDS011;42705;50.326;18.772;2023-05-28T17:36:45;4.10;;;1.30;;
56824;SDS011;42705;50.326;18.772;2023-05-28T17:42:07;5.10;;;1.80;;
56824;SDS011;42705;50.326;18.772;2023-05-28T17:47:29;6.80;;;2.30;;
56824;SDS011;42705;50.326;18.772;2023-05-28T17:52:51;9.60;;;2.30;;
56824;SDS011;42705;50.326;18.772;2023-05-28T17:58:13;2.80;;;1.60;;
56824;SDS011;42705;50.326;18.772;2023-05-28T18:03:35;4.10;;;2.10;;
56824;SDS011;42705;50.326;18.772;2023-05-28T18:08:58;4.30;;;1.90;;
56824;SDS011;42705;50.326;18.772;2023-05-28T18:14:21;7.70;;;2.40;;
56824;SDS011;42705;50.326;18.772;2023-05-28T18:19:44;9.20;;;1.90;;
56824;SDS011;42705;50.326;18.772;2023-05-28T18:25:07;3.50;;;1.80;;
56824;SDS011;42705;50.326;18.772;2023-05-28T18:30:29;6.00;;;2.00;;
56824;SDS011;42705;50.326;18.772;2023-05-28T18:35:54;5.40;;;2.50;;
56824;SDS011;42705;50.326;18.772;2023-05-28T18:41:17;6.80;;;2.70;;
56824;SDS011;42705;50.326;18.772;2023-05-28T18:46:40;6.70;;;2.90;;
56824;SDS011;42705;50.326;18.772;2023-05-28T18:52:03;6.50;;;3.10;;
56824;SDS011;42705;50.326;18.772;2023-05-28T18:57:26;7.20;;;3.20;;
56824;SDS011;42705;50.326;18.772;2023-05-28T19:02:49;7.80;;;4.50;;
56824;SDS011;42705;50.326;18.772;2023-05-28T19:08:13;9.00;;;3.40;;
56824;SDS011;42705;50.326;18.772;2023-05-28T19:13:37;8.10;;;3.90;;
56824;SDS011;42705;50.326;18.772;2023-05-28T19:19:01;6.60;;;2.30;;
56824;SDS011;42705;50.326;18.772;2023-05-28T19:24:23;6.60;;;2.30;;
56824;SDS011;42705;50.326;18.772;2023-05-28T19:29:47;16.90;;;9.80;;
56824;SDS011;42705;50.326;18.772;2023-05-28T19:35:11;9.80;;;6.10;;
56824;SDS011;42705;50.326;18.772;2023-05-28T19:40:35;4.50;;;2.60;;
56824;SDS011;42705;50.326;18.772;2023-05-28T19:51:23;7.00;;;2.60;;
56824;SDS011;42705;50.326;18.772;2023-05-28T19:56:46;7.90;;;4.40;;
56824;SDS011;42705;50.326;18.772;2023-05-28T20:02:08;5.60;;;2.40;;
56824;SDS011;42705;50.326;18.772;2023-05-28T20:12:52;9.70;;;4.80;;
56824;SDS011;42705;50.326;18.772;2023-05-28T20:18:14;4.80;;;2.60;;
56824;SDS011;42705;50.326;18.772;2023-05-28T20:23:36;5.20;;;2.60;;
56824;SDS011;42705;50.326;18.772;2023-05-28T20:28:58;5.60;;;2.80;;
56824;SDS011;42705;50.326;18.772;2023-05-28T20:34:20;7.30;;;2.50;;
56824;SDS011;42705;50.326;18.772;2023-05-28T20:39:42;8.30;;;3.20;;
56824;SDS011;42705;50.326;18.772;2023-05-28T20:45:05;8.40;;;2.80;;
56824;SDS011;42705;50.326;18.772;2023-05-28T20:50:28;7.50;;;3.40;;
56824;SDS011;42705;50.326;18.772;2023-05-28T20:55:50;5.20;;;2.90;;
56824;SDS011;42705;50.326;18.772;2023-05-28T21:01:11;7.10;;;3.60;;
56824;SDS011;42705;50.326;18.772;2023-05-28T21:06:33;7.10;;;3.60;;
56824;SDS011;42705;50.326;18.772;2023-05-28T21:11:55;6.90;;;3.40;;
56824;SDS011;42705;50.326;18.772;2023-05-28T21:17:17;7.40;;;3.10;;
56824;SDS011;42705;50.326;18.772;2023-05-28T21:22:39;10.90;;;3.50;;
56824;SDS011;42705;50.326;18.772;2023-05-28T21:28:01;10.40;;;3.60;;
56824;SDS011;42705;50.326;18.772;2023-05-28T21:33:22;10.60;;;4.10;;
56824;SDS011;42705;50.326;18.772;2023-05-28T21:38:44;10.90;;;4.50;;
56824;SDS011;42705;50.326;18.772;2023-05-28T21:44:06;12.00;;;4.30;;
56824;SDS011;42705;50.326;18.772;2023-05-28T21:49:28;13.00;;;4.80;;
56824;SDS011;42705;50.326;18.772;2023-05-28T21:54:50;7.30;;;4.30;;
56824;SDS011;42705;50.326;18.772;2023-05-28T22:00:14;9.70;;;4.40;;
56824;SDS011;42705;50.326;18.772;2023-05-28T22:05:37;11.50;;;5.30;;
56824;SDS011;42705;50.326;18.772;2023-05-28T22:10:58;13.70;;;6.40;;
56824;SDS011;42705;50.326;18.772;2023-05-28T22:16:21;11.10;;;6.10;;
56824;SDS011;42705;50.326;18.772;2023-05-28T22:21:43;13.60;;;7.10;;
56824;SDS011;42705;50.326;18.772;2023-05-28T22:27:06;14.80;;;8.00;;
56824;SDS011;42705;50.326;18.772;2023-05-28T22:32:28;15.40;;;8.90;;
56824;SDS011;42705;50.326;18.772;2023-05-28T22:37:51;19.70;;;8.80;;
56824;SDS011;42705;50.326;18.772;2023-05-28T22:43:12;18.10;;;8.10;;
56824;SDS011;42705;50.326;18.772;2023-05-28T22:48:36;13.10;;;6.00;;
56824;SDS011;42705;50.326;18.772;2023-05-28T22:53:57;12.10;;;6.30;;
56824;SDS011;42705;50.326;18.772;2023-05-28T22:59:21;11.70;;;5.90;;
56824;SDS011;42705;50.326;18.772;2023-05-28T23:04:43;13.30;;;5.30;;
56824;SDS011;42705;50.326;18.772;2023-05-28T23:10:05;13.60;;;6.00;;
56824;SDS011;42705;50.326;18.772;2023-05-28T23:15:28;14.90;;;5.80;;
56824;SDS011;42705;50.326;18.772;2023-05-28T23:20:52;14.90;;;6.00;;
56824;SDS011;42705;50.326;18.772;2023-05-28T23:26:14;21.20;;;7.90;;
56824;SDS011;42705;50.326;18.772;2023-05-28T23:31:36;18.60;;;6.80;;
56824;SDS011;42705;50.326;18.772;2023-05-28T23:36:58;18.60;;;6.60;;
56824;SDS011;42705;50.326;18.772;2023-05-28T23:42:20;21.70;;;6.30;;
56824;SDS011;42705;50.326;18.772;2023-05-28T23:47:41;17.40;;;7.00;;
56824;SDS011;42705;50.326;18.772;2023-05-28T23:53:03;17.40;;;6.80;;
56824;SDS011;42705;50.326;18.772;2023-05-28T23:58:25;16.70;;;6.80;;
